T7RCW EIDW-EGPH

Flight info

Callsign T7RCW
Flight time 0h 38m
Altitude 25000
Route ROTEV8E ROTEV P600 TUNSO
Aircraft C25C/M-SDE2E3FGHRWXY/LB1

Departure

Time 2026-04-25 19:20
Airport Dublin Airport (EIDW)

Arrival

Time 2026-04-25 19:58
Airport Edinburgh Airport (EGPH)
Time Latitude Longitude Altitude Speed Heading
2026-04-25 18:54 53.43060 -6.23674 210 ft 0 kts 185°
2026-04-25 19:05 53.43055 -6.23663 215 ft 4 kts 100°
2026-04-25 19:05 53.43080 -6.23613 209 ft 7 kts 27°
2026-04-25 19:06 53.43121 -6.23625 210 ft 5 kts 304°
2026-04-25 19:06 53.43148 -6.23822 213 ft 11 kts 274°
2026-04-25 19:06 53.43128 -6.23947 218 ft 10 kts 254°
2026-04-25 19:07 53.43152 -6.24177 214 ft 10 kts 284°
2026-04-25 19:07 53.43175 -6.24301 216 ft 13 kts 289°
2026-04-25 19:08 53.43197 -6.24602 213 ft 14 kts 275°
2026-04-25 19:08 53.43206 -6.24768 212 ft 15 kts 275°
2026-04-25 19:09 53.43232 -6.25276 215 ft 10 kts 267°
2026-04-25 19:09 53.43222 -6.25341 217 ft 9 kts 249°
2026-04-25 19:09 53.43187 -6.25477 215 ft 1 kts 249°
2026-04-25 19:10 53.43185 -6.25485 219 ft 1 kts 254°
2026-04-25 19:10 53.43153 -6.25517 216 ft 6 kts 170°
2026-04-25 19:10 53.43108 -6.25485 217 ft 7 kts 156°
2026-04-25 19:10 53.43062 -6.25453 218 ft 7 kts 157°
2026-04-25 19:11 53.43017 -6.25420 219 ft 8 kts 156°
2026-04-25 19:11 53.42963 -6.25379 217 ft 10 kts 155°
2026-04-25 19:11 53.42898 -6.25318 216 ft 12 kts 154°
2026-04-25 19:11 53.42821 -6.25266 215 ft 12 kts 172°
2026-04-25 19:12 53.42759 -6.25313 215 ft 9 kts 227°
2026-04-25 19:12 53.42716 -6.25390 216 ft 10 kts 225°
2026-04-25 19:12 53.42661 -6.25482 213 ft 13 kts 226°
2026-04-25 19:12 53.42596 -6.25598 212 ft 14 kts 226°
2026-04-25 19:13 53.42547 -6.25680 210 ft 16 kts 224°
2026-04-25 19:13 53.42442 -6.25859 210 ft 15 kts 228°
2026-04-25 19:13 53.42369 -6.25981 212 ft 14 kts 223°
2026-04-25 19:13 53.42307 -6.26089 216 ft 11 kts 230°
2026-04-25 19:14 53.42276 -6.26191 219 ft 9 kts 253°
2026-04-25 19:14 53.42271 -6.26225 219 ft 9 kts 258°
2026-04-25 19:14 53.42274 -6.26395 221 ft 9 kts 275°
2026-04-25 19:14 53.42279 -6.26488 223 ft 8 kts 275°
2026-04-25 19:15 53.42285 -6.26588 225 ft 10 kts 275°
2026-04-25 19:15 53.42292 -6.26726 225 ft 14 kts 275°
2026-04-25 19:15 53.42302 -6.26903 223 ft 16 kts 275°
2026-04-25 19:15 53.42311 -6.27087 225 ft 15 kts 274°
2026-04-25 19:16 53.42321 -6.27270 224 ft 17 kts 277°
2026-04-25 19:16 53.42332 -6.27465 225 ft 16 kts 275°
2026-04-25 19:16 53.42341 -6.27639 229 ft 14 kts 275°
2026-04-25 19:16 53.42350 -6.27795 232 ft 13 kts 276°
2026-04-25 19:17 53.42358 -6.27932 235 ft 11 kts 275°
2026-04-25 19:17 53.42363 -6.28042 238 ft 10 kts 273°
2026-04-25 19:17 53.42372 -6.28195 240 ft 15 kts 276°
2026-04-25 19:17 53.42382 -6.28392 243 ft 18 kts 275°
2026-04-25 19:18 53.42394 -6.28603 242 ft 19 kts 275°
2026-04-25 19:18 53.42406 -6.28816 243 ft 17 kts 276°
2026-04-25 19:18 53.42409 -6.28980 242 ft 13 kts 257°
2026-04-25 19:18 53.42344 -6.29073 242 ft 13 kts 184°
2026-04-25 19:19 53.42261 -6.29048 243 ft 12 kts 143°
2026-04-25 19:19 53.42235 -6.28864 242 ft 28 kts 95°
2026-04-25 19:19 53.42185 -6.28021 256 ft 124 kts 97°
2026-04-25 19:19 53.42113 -6.26941 736 ft 154 kts 97°
2026-04-25 19:20 53.41980 -6.24144 1920 ft 204 kts 95°
2026-04-25 19:20 53.41845 -6.21612 2887 ft 230 kts 95°
2026-04-25 19:20 53.41685 -6.18847 3975 ft 246 kts 96°
2026-04-25 19:20 53.41520 -6.15965 5271 ft 250 kts 96°
2026-04-25 19:21 53.41361 -6.13006 6428 ft 259 kts 97°
2026-04-25 19:21 53.41020 -6.06900 8769 ft 268 kts 97°
2026-04-25 19:21 53.40925 -6.03753 9898 ft 275 kts 86°
2026-04-25 19:22 53.41632 -6.00742 10975 ft 284 kts 59°
2026-04-25 19:22 53.43093 -5.98497 12012 ft 292 kts 28°
2026-04-25 19:22 53.47112 -5.97873 14109 ft 299 kts 354°
2026-04-25 19:23 53.49198 -5.98232 15029 ft 303 kts 351°
2026-04-25 19:23 53.53447 -5.99157 16835 ft 312 kts 345°
2026-04-25 19:23 53.55590 -5.99866 17746 ft 317 kts 348°
2026-04-25 19:24 53.57777 -6.00513 18643 ft 321 kts 347°
2026-04-25 19:24 53.59987 -6.01216 19478 ft 325 kts 346°
2026-04-25 19:24 53.64473 -6.02686 21225 ft 332 kts 347°
2026-04-25 19:25 53.69153 -6.04197 22460 ft 358 kts 347°
2026-04-25 19:25 53.71669 -6.05018 22765 ft 378 kts 347°
2026-04-25 19:25 53.74337 -6.05440 23180 ft 394 kts 357°
2026-04-25 19:26 53.77122 -6.05515 23599 ft 406 kts 357°
2026-04-25 19:26 53.79990 -6.05621 23879 ft 419 kts 357°
2026-04-25 19:26 53.82936 -6.05495 24110 ft 430 kts
2026-04-25 19:26 53.85754 -6.03711 24343 ft 437 kts 26°
2026-04-25 19:27 53.88458 -6.01329 24589 ft 439 kts 27°
2026-04-25 19:27 53.89336 -6.00547 24668 ft 440 kts 26°
2026-04-25 19:27 53.93952 -5.96705 25077 ft 442 kts 24°
2026-04-25 19:27 53.96707 -5.94473 25158 ft 447 kts 25°
2026-04-25 19:28 53.99510 -5.92125 25195 ft 449 kts 25°
2026-04-25 19:28 54.02286 -5.89775 25201 ft 444 kts 25°
2026-04-25 19:28 54.05044 -5.87472 25203 ft 440 kts 25°
2026-04-25 19:28 54.07806 -5.85169 25204 ft 444 kts 25°
2026-04-25 19:29 54.10596 -5.82841 25209 ft 450 kts 25°
2026-04-25 19:29 54.13413 -5.80466 25212 ft 451 kts 25°
2026-04-25 19:29 54.16218 -5.78106 25215 ft 449 kts 25°
2026-04-25 19:29 54.19007 -5.75758 25215 ft 445 kts 24°
2026-04-25 19:30 54.21779 -5.73422 25215 ft 443 kts 25°
2026-04-25 19:30 54.24533 -5.71097 25216 ft 440 kts 24°
2026-04-25 19:30 54.27272 -5.68775 25220 ft 439 kts 25°
2026-04-25 19:30 54.29992 -5.66409 25219 ft 438 kts 26°
2026-04-25 19:31 54.32679 -5.63961 25217 ft 437 kts 25°
2026-04-25 19:31 54.35407 -5.61685 25218 ft 436 kts 23°
2026-04-25 19:31 54.38148 -5.59470 25218 ft 435 kts 24°
2026-04-25 19:31 54.40860 -5.57157 25219 ft 435 kts 25°
2026-04-25 19:32 54.43560 -5.54805 25219 ft 435 kts 25°
2026-04-25 19:32 54.46273 -5.52477 25219 ft 437 kts 24°
2026-04-25 19:32 54.49016 -5.50163 25220 ft 440 kts 24°
2026-04-25 19:32 54.49906 -5.49406 25223 ft 441 kts 24°
2026-04-25 19:33 54.54523 -5.45443 25222 ft 444 kts 25°
2026-04-25 19:33 54.57287 -5.43067 25220 ft 445 kts 24°
2026-04-25 19:33 54.60055 -5.40689 25222 ft 444 kts 24°
2026-04-25 19:33 54.62819 -5.38319 25219 ft 444 kts 24°
2026-04-25 19:34 54.65580 -5.35931 25221 ft 443 kts 25°
2026-04-25 19:34 54.68336 -5.33552 25221 ft 443 kts 25°
2026-04-25 19:34 54.71088 -5.31169 25221 ft 443 kts 24°
2026-04-25 19:34 54.73844 -5.28787 25204 ft 443 kts 25°
2026-04-25 19:35 54.76607 -5.26389 24981 ft 445 kts 24°
2026-04-25 19:35 54.79327 -5.24025 24453 ft 442 kts 25°
2026-04-25 19:35 54.82090 -5.21621 23865 ft 435 kts 25°
2026-04-25 19:35 54.84777 -5.19277 23190 ft 429 kts 25°
2026-04-25 19:36 54.87429 -5.16966 22518 ft 424 kts 25°
2026-04-25 19:36 54.90053 -5.14669 21889 ft 422 kts 25°
2026-04-25 19:36 54.92670 -5.12377 21270 ft 420 kts 25°
2026-04-25 19:36 54.95255 -5.10036 20658 ft 417 kts 30°
2026-04-25 19:37 54.97339 -5.06559 20068 ft 418 kts 53°
2026-04-25 19:37 54.98957 -5.02486 19722 ft 413 kts 55°
2026-04-25 19:37 55.00564 -4.98318 19369 ft 415 kts 55°
2026-04-25 19:37 55.02197 -4.94197 19014 ft 411 kts 54°
2026-04-25 19:38 55.03839 -4.90146 18662 ft 408 kts 54°
2026-04-25 19:38 55.05468 -4.86100 18275 ft 407 kts 54°
2026-04-25 19:38 55.07069 -4.82050 17880 ft 404 kts 55°
2026-04-25 19:38 55.08653 -4.78031 17484 ft 399 kts 55°
2026-04-25 19:39 55.10234 -4.74072 17093 ft 395 kts 55°
2026-04-25 19:39 55.11788 -4.70149 16731 ft 391 kts 55°
2026-04-25 19:39 55.13330 -4.66249 16342 ft 388 kts 55°
2026-04-25 19:39 55.14859 -4.62377 16037 ft 388 kts 56°
2026-04-25 19:40 55.16395 -4.58477 15789 ft 389 kts 56°
2026-04-25 19:40 55.17921 -4.54598 15539 ft 384 kts 56°
2026-04-25 19:40 55.18941 -4.52009 15373 ft 381 kts 56°
2026-04-25 19:40 55.20436 -4.48198 15278 ft 380 kts 56°
2026-04-25 19:41 55.21940 -4.44361 15245 ft 383 kts 56°
2026-04-25 19:41 55.23450 -4.40502 15225 ft 384 kts 56°
2026-04-25 19:41 55.24940 -4.36687 15223 ft 385 kts 56°
2026-04-25 19:41 55.25963 -4.34071 15157 ft 384 kts 56°
2026-04-25 19:42 55.27953 -4.28962 14842 ft 381 kts 56°
2026-04-25 19:42 55.29444 -4.25129 14596 ft 380 kts 56°
2026-04-25 19:42 55.30930 -4.21295 14360 ft 379 kts 56°
2026-04-25 19:42 55.32409 -4.17487 14122 ft 376 kts 57°
2026-04-25 19:43 55.33893 -4.13646 13862 ft 374 kts 56°
2026-04-25 19:43 55.35331 -4.09932 13600 ft 372 kts 57°
2026-04-25 19:43 55.36786 -4.06164 13339 ft 373 kts 56°
2026-04-25 19:43 55.38240 -4.02386 12994 ft 373 kts 57°
2026-04-25 19:44 55.39677 -3.98648 12613 ft 366 kts 57°
2026-04-25 19:44 55.41097 -3.94967 12226 ft 362 kts 57°
2026-04-25 19:44 55.42486 -3.91328 11786 ft 354 kts 57°
2026-04-25 19:44 55.43845 -3.87796 11290 ft 342 kts 57°
2026-04-25 19:45 55.45148 -3.84377 10792 ft 331 kts 57°
2026-04-25 19:45 55.46412 -3.81072 10311 ft 320 kts 57°
2026-04-25 19:45 55.47633 -3.77874 9794 ft 310 kts 57°
2026-04-25 19:45 55.48817 -3.74766 9259 ft 301 kts 57°
2026-04-25 19:46 55.49963 -3.71748 8775 ft 292 kts 56°
2026-04-25 19:46 55.51073 -3.68831 8400 ft 281 kts 57°
2026-04-25 19:46 55.52148 -3.66000 8272 ft 275 kts 56°
2026-04-25 19:46 55.53211 -3.63188 8251 ft 278 kts 57°
2026-04-25 19:47 55.54304 -3.60305 8245 ft 289 kts 56°
2026-04-25 19:47 55.55433 -3.57316 8252 ft 293 kts 56°
2026-04-25 19:47 55.56561 -3.54346 8255 ft 290 kts 56°
2026-04-25 19:47 55.57676 -3.51374 8261 ft 291 kts 56°
2026-04-25 19:48 55.58806 -3.48392 8259 ft 292 kts 56°
2026-04-25 19:48 55.59923 -3.45411 8265 ft 290 kts 56°
2026-04-25 19:48 55.61039 -3.42447 8265 ft 289 kts 56°
2026-04-25 19:48 55.62148 -3.39497 8269 ft 288 kts 56°
2026-04-25 19:49 55.63256 -3.36542 8267 ft 288 kts 56°
2026-04-25 19:49 55.64018 -3.34626 8266 ft 288 kts 48°
2026-04-25 19:49 55.66354 -3.32627 8205 ft 285 kts
2026-04-25 19:49 55.68252 -3.33337 7927 ft 279 kts 330°
2026-04-25 19:50 55.70678 -3.38412 7417 ft 269 kts 301°
2026-04-25 19:50 55.71646 -3.41240 7164 ft 267 kts 300°
2026-04-25 19:50 55.72590 -3.44060 6932 ft 265 kts 300°
2026-04-25 19:51 55.73519 -3.46883 6687 ft 264 kts 298°
2026-04-25 19:51 55.74423 -3.49666 6436 ft 264 kts 299°
2026-04-25 19:51 55.75348 -3.52494 6164 ft 265 kts 299°
2026-04-25 19:51 55.75662 -3.53448 6056 ft 264 kts 299°
2026-04-25 19:52 55.78999 -3.58888 5150 ft 238 kts 328°
2026-04-25 19:52 55.80418 -3.60302 4835 ft 233 kts 329°
2026-04-25 19:52 55.81852 -3.61695 4510 ft 235 kts 329°
2026-04-25 19:53 55.83285 -3.63100 4152 ft 235 kts 329°
2026-04-25 19:53 55.84704 -3.64489 3731 ft 231 kts 332°
2026-04-25 19:53 55.86252 -3.64896 3270 ft 229 kts 13°
2026-04-25 19:53 55.87530 -3.63375 3036 ft 219 kts 56°
2026-04-25 19:54 55.87942 -3.60910 3012 ft 204 kts 86°
2026-04-25 19:54 55.88077 -3.58499 3007 ft 190 kts 79°
2026-04-25 19:54 55.88566 -3.56272 2690 ft 197 kts 62°
2026-04-25 19:54 55.89026 -3.54884 2490 ft 196 kts 61°
2026-04-25 19:55 55.89967 -3.52071 1978 ft 198 kts 61°
2026-04-25 19:55 55.90681 -3.50002 1678 ft 193 kts 62°
2026-04-25 19:55 55.91368 -3.47975 1407 ft 189 kts 61°
2026-04-25 19:55 55.92028 -3.46015 1152 ft 175 kts 61°
2026-04-25 19:56 55.92627 -3.44258 904 ft 156 kts 61°
2026-04-25 19:56 55.93137 -3.42763 698 ft 120 kts 60°
2026-04-25 19:56 55.93507 -3.41656 542 ft 95 kts 60°
2026-04-25 19:56 55.93835 -3.40683 425 ft 91 kts 59°
2026-04-25 19:57 55.94157 -3.39727 312 ft 89 kts 59°
2026-04-25 19:57 55.94474 -3.38796 195 ft 87 kts 59°
2026-04-25 19:57 55.94776 -3.37902 115 ft 74 kts 59°
2026-04-25 19:57 55.95002 -3.37241 106 ft 52 kts 59°
2026-04-25 19:58 55.95158 -3.36778 108 ft 37 kts 59°
2026-04-25 19:58 55.95248 -3.36512 103 ft 10 kts 61°
2026-04-25 19:58 55.95245 -3.36410 102 ft 9 kts 139°
2026-04-25 19:58 55.95195 -3.36353 102 ft 5 kts 149°
2026-04-25 19:59 55.95176 -3.36332 103 ft 0 kts 148°
2026-04-25 20:00 55.95166 -3.36321 76 ft 3 kts 146°
2026-04-25 20:00 55.95142 -3.36260 103 ft 9 kts 110°
2026-04-25 20:01 55.95095 -3.36012 102 ft 11 kts 110°
2026-04-25 20:01 55.95062 -3.35888 102 ft 12 kts 116°
2026-04-25 20:01 55.95059 -3.35747 102 ft 12 kts 90°
2026-04-25 20:02 55.95031 -3.35610 102 ft 12 kts 118°
2026-04-25 20:02 55.94989 -3.35482 103 ft 12 kts 117°
2026-04-25 20:02 55.94952 -3.35364 105 ft 10 kts 120°
2026-04-25 20:02 55.94917 -3.35248 105 ft 11 kts 118°
2026-04-25 20:03 55.94881 -3.35129 106 ft 11 kts 119°
2026-04-25 20:03 55.94846 -3.35015 107 ft 10 kts 117°
2026-04-25 20:03 55.94814 -3.34905 108 ft 10 kts 117°
2026-04-25 20:03 55.94783 -3.34798 109 ft 10 kts 107°
2026-04-25 20:04 55.94796 -3.34695 109 ft 7 kts 65°
2026-04-25 20:04 55.94806 -3.34647 110 ft 1 kts 73°
2026-04-25 20:04 55.94802 -3.34629 110 ft 0 kts 154°